sensor_id;sensor_type;location;lat;lon;timestamp;temperature;humidity
42479;DHT22;28110;47.080;9.476;2023-04-07T00:01:19;8.00;92.30
42479;DHT22;28110;47.080;9.476;2023-04-07T00:03:46;8.10;92.40
42479;DHT22;28110;47.080;9.476;2023-04-07T00:06:11;8.10;92.80
42479;DHT22;28110;47.080;9.476;2023-04-07T00:08:37;8.10;92.80
42479;DHT22;28110;47.080;9.476;2023-04-07T00:11:03;8.00;92.90
42479;DHT22;28110;47.080;9.476;2023-04-07T00:13:28;8.00;93.40
42479;DHT22;28110;47.080;9.476;2023-04-07T00:15:54;8.00;93.60
42479;DHT22;28110;47.080;9.476;2023-04-07T00:18:19;7.90;93.90
42479;DHT22;28110;47.080;9.476;2023-04-07T00:20:45;7.90;93.90
42479;DHT22;28110;47.080;9.476;2023-04-07T00:23:10;7.90;94.00
42479;DHT22;28110;47.080;9.476;2023-04-07T00:25:36;7.90;93.90
42479;DHT22;28110;47.080;9.476;2023-04-07T00:28:01;7.90;94.60
42479;DHT22;28110;47.080;9.476;2023-04-07T00:30:27;7.90;95.10
42479;DHT22;28110;47.080;9.476;2023-04-07T00:32:53;7.90;95.20
42479;DHT22;28110;47.080;9.476;2023-04-07T00:35:19;7.90;94.90
42479;DHT22;28110;47.080;9.476;2023-04-07T00:37:44;7.80;95.10
42479;DHT22;28110;47.080;9.476;2023-04-07T00:40:10;7.80;95.30
42479;DHT22;28110;47.080;9.476;2023-04-07T00:42:36;7.90;95.30
42479;DHT22;28110;47.080;9.476;2023-04-07T00:45:01;7.90;95.40
42479;DHT22;28110;47.080;9.476;2023-04-07T00:47:27;7.90;95.10
42479;DHT22;28110;47.080;9.476;2023-04-07T00:49:52;7.90;95.10
42479;DHT22;28110;47.080;9.476;2023-04-07T00:52:18;7.90;95.10
42479;DHT22;28110;47.080;9.476;2023-04-07T00:54:53;7.90;95.10
42479;DHT22;28110;47.080;9.476;2023-04-07T00:57:18;7.90;95.10
42479;DHT22;28110;47.080;9.476;2023-04-07T00:59:44;7.90;95.40
42479;DHT22;28110;47.080;9.476;2023-04-07T01:03:00;7.80;96.20
42479;DHT22;28110;47.080;9.476;2023-04-07T01:10:43;7.90;95.60
42479;DHT22;28110;47.080;9.476;2023-04-07T01:13:21;7.90;95.40
42479;DHT22;28110;47.080;9.476;2023-04-07T01:15:50;7.80;95.80
42479;DHT22;28110;47.080;9.476;2023-04-07T01:18:21;7.90;96.20
42479;DHT22;28110;47.080;9.476;2023-04-07T01:20:50;7.90;96.00
42479;DHT22;28110;47.080;9.476;2023-04-07T01:23:22;7.80;96.20
42479;DHT22;28110;47.080;9.476;2023-04-07T01:28:56;7.80;96.40
42479;DHT22;28110;47.080;9.476;2023-04-07T01:31:27;7.70;96.60
42479;DHT22;28110;47.080;9.476;2023-04-07T01:33:56;7.70;96.50
42479;DHT22;28110;47.080;9.476;2023-04-07T01:36:26;7.80;96.60
42479;DHT22;28110;47.080;9.476;2023-04-07T01:38:53;7.70;96.60
42479;DHT22;28110;47.080;9.476;2023-04-07T01:41:19;7.80;96.80
42479;DHT22;28110;47.080;9.476;2023-04-07T01:43:46;7.80;96.70
42479;DHT22;28110;47.080;9.476;2023-04-07T01:46:13;7.80;96.30
42479;DHT22;28110;47.080;9.476;2023-04-07T01:48:39;7.80;95.80
42479;DHT22;28110;47.080;9.476;2023-04-07T01:51:05;7.90;95.90
42479;DHT22;28110;47.080;9.476;2023-04-07T01:53:33;7.90;95.20
42479;DHT22;28110;47.080;9.476;2023-04-07T01:56:02;7.90;95.30
42479;DHT22;28110;47.080;9.476;2023-04-07T01:58:28;7.90;95.10
42479;DHT22;28110;47.080;9.476;2023-04-07T02:00:53;8.00;95.20
42479;DHT22;28110;47.080;9.476;2023-04-07T02:03:22;7.90;95.30
42479;DHT22;28110;47.080;9.476;2023-04-07T02:05:50;7.90;95.40
42479;DHT22;28110;47.080;9.476;2023-04-07T02:08:17;7.90;95.70
42479;DHT22;28110;47.080;9.476;2023-04-07T02:10:46;7.90;95.20
42479;DHT22;28110;47.080;9.476;2023-04-07T02:13:17;7.90;95.50
42479;DHT22;28110;47.080;9.476;2023-04-07T02:15:43;7.90;95.80
42479;DHT22;28110;47.080;9.476;2023-04-07T02:18:12;7.80;96.40
42479;DHT22;28110;47.080;9.476;2023-04-07T02:20:40;7.90;96.50
42479;DHT22;28110;47.080;9.476;2023-04-07T02:23:07;7.80;96.80
42479;DHT22;28110;47.080;9.476;2023-04-07T02:25:33;7.70;97.10
42479;DHT22;28110;47.080;9.476;2023-04-07T02:27:59;7.70;97.40
42479;DHT22;28110;47.080;9.476;2023-04-07T02:30:26;7.70;97.00
42479;DHT22;28110;47.080;9.476;2023-04-07T02:32:52;7.70;97.60
42479;DHT22;28110;47.080;9.476;2023-04-07T02:35:18;7.70;97.70
42479;DHT22;28110;47.080;9.476;2023-04-07T02:37:45;7.70;97.80
42479;DHT22;28110;47.080;9.476;2023-04-07T02:40:11;7.60;98.10
42479;DHT22;28110;47.080;9.476;2023-04-07T02:42:37;7.60;98.60
42479;DHT22;28110;47.080;9.476;2023-04-07T02:45:03;7.60;99.10
42479;DHT22;28110;47.080;9.476;2023-04-07T02:47:29;7.60;99.20
42479;DHT22;28110;47.080;9.476;2023-04-07T02:49:55;7.60;97.90
42479;DHT22;28110;47.080;9.476;2023-04-07T02:52:20;7.60;97.70
42479;DHT22;28110;47.080;9.476;2023-04-07T02:54:46;7.60;97.00
42479;DHT22;28110;47.080;9.476;2023-04-07T02:57:11;7.60;98.10
42479;DHT22;28110;47.080;9.476;2023-04-07T02:59:38;7.60;99.00
42479;DHT22;28110;47.080;9.476;2023-04-07T03:02:04;7.50;99.70
42479;DHT22;28110;47.080;9.476;2023-04-07T03:04:30;7.50;99.90
42479;DHT22;28110;47.080;9.476;2023-04-07T03:06:56;7.50;99.90
42479;DHT22;28110;47.080;9.476;2023-04-07T03:09:22;7.50;99.90
42479;DHT22;28110;47.080;9.476;2023-04-07T03:11:47;7.50;99.90
42479;DHT22;28110;47.080;9.476;2023-04-07T03:14:13;7.40;99.90
42479;DHT22;28110;47.080;9.476;2023-04-07T03:16:38;7.40;99.90
42479;DHT22;28110;47.080;9.476;2023-04-07T03:19:04;7.40;99.50
42479;DHT22;28110;47.080;9.476;2023-04-07T03:21:29;7.50;99.60
42479;DHT22;28110;47.080;9.476;2023-04-07T03:23:56;7.40;99.90
42479;DHT22;28110;47.080;9.476;2023-04-07T03:26:21;7.40;99.80
42479;DHT22;28110;47.080;9.476;2023-04-07T03:28:47;7.40;99.80
42479;DHT22;28110;47.080;9.476;2023-04-07T03:31:12;7.40;99.90
42479;DHT22;28110;47.080;9.476;2023-04-07T03:33:38;7.40;99.70
42479;DHT22;28110;47.080;9.476;2023-04-07T03:36:04;7.40;99.60
42479;DHT22;28110;47.080;9.476;2023-04-07T03:38:30;7.40;99.30
42479;DHT22;28110;47.080;9.476;2023-04-07T03:40:55;7.50;99.30
42479;DHT22;28110;47.080;9.476;2023-04-07T03:43:21;7.50;99.10
42479;DHT22;28110;47.080;9.476;2023-04-07T03:45:47;7.50;99.10
42479;DHT22;28110;47.080;9.476;2023-04-07T03:48:12;7.50;99.30
42479;DHT22;28110;47.080;9.476;2023-04-07T03:50:38;7.60;99.10
42479;DHT22;28110;47.080;9.476;2023-04-07T03:53:04;7.60;99.20
42479;DHT22;28110;47.080;9.476;2023-04-07T03:55:30;7.50;99.30
42479;DHT22;28110;47.080;9.476;2023-04-07T03:57:56;7.50;99.50
42479;DHT22;28110;47.080;9.476;2023-04-07T04:00:21;7.50;99.50
42479;DHT22;28110;47.080;9.476;2023-04-07T04:02:47;7.40;99.30
42479;DHT22;28110;47.080;9.476;2023-04-07T04:05:13;7.40;99.60
42479;DHT22;28110;47.080;9.476;2023-04-07T04:07:38;7.40;99.70
42479;DHT22;28110;47.080;9.476;2023-04-07T04:10:04;7.40;99.90
42479;DHT22;28110;47.080;9.476;2023-04-07T04:12:30;7.40;99.70
42479;DHT22;28110;47.080;9.476;2023-04-07T04:14:55;7.40;99.60
42479;DHT22;28110;47.080;9.476;2023-04-07T04:17:21;7.40;99.50
42479;DHT22;28110;47.080;9.476;2023-04-07T04:19:46;7.30;99.30
42479;DHT22;28110;47.080;9.476;2023-04-07T04:22:12;7.40;98.90
42479;DHT22;28110;47.080;9.476;2023-04-07T04:24:37;7.30;99.00
42479;DHT22;28110;47.080;9.476;2023-04-07T04:27:03;7.30;98.80
42479;DHT22;28110;47.080;9.476;2023-04-07T04:29:28;7.30;98.20
42479;DHT22;28110;47.080;9.476;2023-04-07T04:31:54;7.40;98.20
42479;DHT22;28110;47.080;9.476;2023-04-07T04:34:20;7.40;97.90
42479;DHT22;28110;47.080;9.476;2023-04-07T04:36:45;7.40;97.60
42479;DHT22;28110;47.080;9.476;2023-04-07T04:39:13;7.50;98.00
42479;DHT22;28110;47.080;9.476;2023-04-07T04:41:38;7.50;98.00
42479;DHT22;28110;47.080;9.476;2023-04-07T04:44:04;7.40;98.20
42479;DHT22;28110;47.080;9.476;2023-04-07T04:46:30;7.40;98.30
42479;DHT22;28110;47.080;9.476;2023-04-07T04:48:56;7.40;98.50
42479;DHT22;28110;47.080;9.476;2023-04-07T04:51:22;7.30;98.60
42479;DHT22;28110;47.080;9.476;2023-04-07T04:53:47;7.30;98.80
42479;DHT22;28110;47.080;9.476;2023-04-07T04:56:13;7.30;98.50
42479;DHT22;28110;47.080;9.476;2023-04-07T04:58:39;7.30;98.50
42479;DHT22;28110;47.080;9.476;2023-04-07T05:01:06;7.40;98.40
42479;DHT22;28110;47.080;9.476;2023-04-07T05:03:32;7.30;98.60
42479;DHT22;28110;47.080;9.476;2023-04-07T05:05:57;7.30;98.30
42479;DHT22;28110;47.080;9.476;2023-04-07T05:08:23;7.30;98.80
42479;DHT22;28110;47.080;9.476;2023-04-07T05:10:48;7.20;99.00
42479;DHT22;28110;47.080;9.476;2023-04-07T05:13:14;7.20;98.90
42479;DHT22;28110;47.080;9.476;2023-04-07T05:15:43;7.20;98.80
42479;DHT22;28110;47.080;9.476;2023-04-07T05:18:08;7.30;98.90
42479;DHT22;28110;47.080;9.476;2023-04-07T05:20:34;7.30;98.80
42479;DHT22;28110;47.080;9.476;2023-04-07T05:22:59;7.40;99.00
42479;DHT22;28110;47.080;9.476;2023-04-07T05:25:25;7.40;98.90
42479;DHT22;28110;47.080;9.476;2023-04-07T05:27:50;7.40;99.00
42479;DHT22;28110;47.080;9.476;2023-04-07T05:30:16;7.50;99.10
42479;DHT22;28110;47.080;9.476;2023-04-07T05:32:42;7.60;98.60
42479;DHT22;28110;47.080;9.476;2023-04-07T05:35:08;7.60;98.60
42479;DHT22;28110;47.080;9.476;2023-04-07T05:37:34;7.60;98.60
42479;DHT22;28110;47.080;9.476;2023-04-07T05:40:00;7.60;98.70
42479;DHT22;28110;47.080;9.476;2023-04-07T05:42:25;7.60;98.80
42479;DHT22;28110;47.080;9.476;2023-04-07T05:44:51;7.60;98.80
42479;DHT22;28110;47.080;9.476;2023-04-07T05:47:16;7.70;98.90
42479;DHT22;28110;47.080;9.476;2023-04-07T05:49:42;7.70;98.90
42479;DHT22;28110;47.080;9.476;2023-04-07T05:52:13;7.70;98.50
42479;DHT22;28110;47.080;9.476;2023-04-07T05:54:39;7.70;98.30
42479;DHT22;28110;47.080;9.476;2023-04-07T05:57:06;7.70;98.50
42479;DHT22;28110;47.080;9.476;2023-04-07T05:59:32;7.70;98.50
42479;DHT22;28110;47.080;9.476;2023-04-07T06:01:58;7.80;98.30
42479;DHT22;28110;47.080;9.476;2023-04-07T06:04:23;7.80;98.30
42479;DHT22;28110;47.080;9.476;2023-04-07T06:06:49;7.80;98.10
42479;DHT22;28110;47.080;9.476;2023-04-07T06:09:14;7.90;98.30
42479;DHT22;28110;47.080;9.476;2023-04-07T06:11:40;7.90;97.70
42479;DHT22;28110;47.080;9.476;2023-04-07T06:14:06;8.00;97.90
42479;DHT22;28110;47.080;9.476;2023-04-07T06:16:31;8.00;98.50
42479;DHT22;28110;47.080;9.476;2023-04-07T06:18:57;8.10;98.70
42479;DHT22;28110;47.080;9.476;2023-04-07T06:21:22;8.20;99.30
42479;DHT22;28110;47.080;9.476;2023-04-07T06:23:49;8.40;98.80
42479;DHT22;28110;47.080;9.476;2023-04-07T06:26:14;8.50;98.10
42479;DHT22;28110;47.080;9.476;2023-04-07T06:28:40;8.60;97.60
42479;DHT22;28110;47.080;9.476;2023-04-07T06:31:06;8.60;96.60
42479;DHT22;28110;47.080;9.476;2023-04-07T06:33:32;8.70;96.40
42479;DHT22;28110;47.080;9.476;2023-04-07T06:35:58;8.70;96.20
42479;DHT22;28110;47.080;9.476;2023-04-07T06:38:24;8.60;96.80
42479;DHT22;28110;47.080;9.476;2023-04-07T06:40:50;8.60;96.90
42479;DHT22;28110;47.080;9.476;2023-04-07T06:43:16;8.60;96.70
42479;DHT22;28110;47.080;9.476;2023-04-07T06:45:41;8.70;96.20
42479;DHT22;28110;47.080;9.476;2023-04-07T06:48:07;8.70;96.00
42479;DHT22;28110;47.080;9.476;2023-04-07T06:50:35;8.80;95.70
42479;DHT22;28110;47.080;9.476;2023-04-07T06:53:01;9.00;95.90
42479;DHT22;28110;47.080;9.476;2023-04-07T06:55:27;9.10;96.00
42479;DHT22;28110;47.080;9.476;2023-04-07T06:57:52;9.10;95.20
42479;DHT22;28110;47.080;9.476;2023-04-07T07:00:18;9.20;94.50
42479;DHT22;28110;47.080;9.476;2023-04-07T07:02:44;9.20;94.20
42479;DHT22;28110;47.080;9.476;2023-04-07T07:05:09;9.30;94.30
42479;DHT22;28110;47.080;9.476;2023-04-07T07:07:36;9.40;94.40
42479;DHT22;28110;47.080;9.476;2023-04-07T07:10:02;9.50;94.30
42479;DHT22;28110;47.080;9.476;2023-04-07T07:12:27;9.60;95.00
42479;DHT22;28110;47.080;9.476;2023-04-07T07:14:53;9.70;94.30
42479;DHT22;28110;47.080;9.476;2023-04-07T07:17:18;9.80;94.90
42479;DHT22;28110;47.080;9.476;2023-04-07T07:19:44;9.80;94.40
42479;DHT22;28110;47.080;9.476;2023-04-07T07:22:09;9.80;94.00
42479;DHT22;28110;47.080;9.476;2023-04-07T07:24:35;9.80;94.40
42479;DHT22;28110;47.080;9.476;2023-04-07T07:27:01;9.90;93.80
42479;DHT22;28110;47.080;9.476;2023-04-07T07:29:28;9.90;93.60
42479;DHT22;28110;47.080;9.476;2023-04-07T07:31:53;9.90;92.90
42479;DHT22;28110;47.080;9.476;2023-04-07T07:34:19;10.00;92.90
42479;DHT22;28110;47.080;9.476;2023-04-07T07:36:44;10.00;92.30
42479;DHT22;28110;47.080;9.476;2023-04-07T07:39:10;10.10;92.80
42479;DHT22;28110;47.080;9.476;2023-04-07T07:41:35;10.10;92.40
42479;DHT22;28110;47.080;9.476;2023-04-07T07:44:01;10.20;92.10
42479;DHT22;28110;47.080;9.476;2023-04-07T07:46:27;10.10;91.60
42479;DHT22;28110;47.080;9.476;2023-04-07T07:48:52;10.10;91.60
42479;DHT22;28110;47.080;9.476;2023-04-07T07:51:18;10.20;91.90
42479;DHT22;28110;47.080;9.476;2023-04-07T07:53:44;10.20;91.80
42479;DHT22;28110;47.080;9.476;2023-04-07T07:56:10;10.20;91.70
42479;DHT22;28110;47.080;9.476;2023-04-07T07:58:36;10.30;92.30
42479;DHT22;28110;47.080;9.476;2023-04-07T08:01:01;10.30;91.80
42479;DHT22;28110;47.080;9.476;2023-04-07T08:03:27;10.40;91.40
42479;DHT22;28110;47.080;9.476;2023-04-07T08:05:52;10.60;91.90
42479;DHT22;28110;47.080;9.476;2023-04-07T08:08:18;10.80;91.50
42479;DHT22;28110;47.080;9.476;2023-04-07T08:10:44;11.00;90.80
42479;DHT22;28110;47.080;9.476;2023-04-07T08:13:09;11.20;89.90
42479;DHT22;28110;47.080;9.476;2023-04-07T08:15:35;11.40;89.50
42479;DHT22;28110;47.080;9.476;2023-04-07T08:18:01;11.60;89.50
42479;DHT22;28110;47.080;9.476;2023-04-07T08:20:29;11.80;90.10
42479;DHT22;28110;47.080;9.476;2023-04-07T08:22:55;12.00;89.20
42479;DHT22;28110;47.080;9.476;2023-04-07T08:25:20;12.00;87.60
42479;DHT22;28110;47.080;9.476;2023-04-07T08:27:46;12.10;87.60
42479;DHT22;28110;47.080;9.476;2023-04-07T08:30:12;12.20;86.20
42479;DHT22;28110;47.080;9.476;2023-04-07T08:32:40;12.40;85.00
42479;DHT22;28110;47.080;9.476;2023-04-07T08:35:06;12.60;84.60
42479;DHT22;28110;47.080;9.476;2023-04-07T08:37:33;12.90;80.30
42479;DHT22;28110;47.080;9.476;2023-04-07T08:39:59;13.20;82.80
42479;DHT22;28110;47.080;9.476;2023-04-07T08:42:27;13.50;82.30
42479;DHT22;28110;47.080;9.476;2023-04-07T08:45:01;13.60;77.60
42479;DHT22;28110;47.080;9.476;2023-04-07T08:47:30;13.80;77.40
42479;DHT22;28110;47.080;9.476;2023-04-07T08:50:00;13.70;74.30
42479;DHT22;28110;47.080;9.476;2023-04-07T08:52:53;13.70;75.00
42479;DHT22;28110;47.080;9.476;2023-04-07T08:55:18;13.70;76.10
42479;DHT22;28110;47.080;9.476;2023-04-07T08:57:43;13.90;76.50
42479;DHT22;28110;47.080;9.476;2023-04-07T09:00:11;13.90;74.00
42479;DHT22;28110;47.080;9.476;2023-04-07T09:02:39;13.90;75.70
42479;DHT22;28110;47.080;9.476;2023-04-07T09:05:07;14.00;75.10
42479;DHT22;28110;47.080;9.476;2023-04-07T09:07:34;14.00;73.50
42479;DHT22;28110;47.080;9.476;2023-04-07T09:10:00;14.10;75.80
42479;DHT22;28110;47.080;9.476;2023-04-07T09:12:30;14.20;74.30
42479;DHT22;28110;47.080;9.476;2023-04-07T09:14:56;14.20;72.20
42479;DHT22;28110;47.080;9.476;2023-04-07T09:17:24;14.20;73.10
42479;DHT22;28110;47.080;9.476;2023-04-07T09:19:50;14.20;73.50
42479;DHT22;28110;47.080;9.476;2023-04-07T09:22:36;14.20;74.90
42479;DHT22;28110;47.080;9.476;2023-04-07T09:25:13;14.20;75.30
42479;DHT22;28110;47.080;9.476;2023-04-07T09:27:39;14.20;73.10
42479;DHT22;28110;47.080;9.476;2023-04-07T09:30:12;14.20;73.80
42479;DHT22;28110;47.080;9.476;2023-04-07T09:32:40;14.20;70.00
42479;DHT22;28110;47.080;9.476;2023-04-07T09:35:06;14.10;69.20
42479;DHT22;28110;47.080;9.476;2023-04-07T09:37:33;14.20;71.20
42479;DHT22;28110;47.080;9.476;2023-04-07T09:39:58;14.40;70.20
42479;DHT22;28110;47.080;9.476;2023-04-07T09:42:25;14.40;70.00
42479;DHT22;28110;47.080;9.476;2023-04-07T09:44:55;14.40;71.60
42479;DHT22;28110;47.080;9.476;2023-04-07T09:47:25;14.30;65.80
42479;DHT22;28110;47.080;9.476;2023-04-07T09:49:54;14.30;68.00
42479;DHT22;28110;47.080;9.476;2023-04-07T09:55:17;14.40;70.00
42479;DHT22;28110;47.080;9.476;2023-04-07T09:57:43;14.60;69.80
42479;DHT22;28110;47.080;9.476;2023-04-07T10:00:10;14.80;70.50
42479;DHT22;28110;47.080;9.476;2023-04-07T10:02:36;14.80;66.90
42479;DHT22;28110;47.080;9.476;2023-04-07T10:05:02;14.70;67.60
42479;DHT22;28110;47.080;9.476;2023-04-07T10:07:28;14.70;67.20
42479;DHT22;28110;47.080;9.476;2023-04-07T10:09:54;14.60;67.80
42479;DHT22;28110;47.080;9.476;2023-04-07T10:12:19;14.60;69.40
42479;DHT22;28110;47.080;9.476;2023-04-07T10:14:46;14.40;68.60
42479;DHT22;28110;47.080;9.476;2023-04-07T10:17:14;14.40;69.00
42479;DHT22;28110;47.080;9.476;2023-04-07T10:19:43;14.20;72.00
42479;DHT22;28110;47.080;9.476;2023-04-07T10:22:09;14.00;70.40
42479;DHT22;28110;47.080;9.476;2023-04-07T10:24:54;13.90;73.50
42479;DHT22;28110;47.080;9.476;2023-04-07T10:27:27;13.80;72.90
42479;DHT22;28110;47.080;9.476;2023-04-07T10:29:54;13.50;72.40
42479;DHT22;28110;47.080;9.476;2023-04-07T10:32:22;13.60;74.50
42479;DHT22;28110;47.080;9.476;2023-04-07T10:37:18;13.60;72.40
42479;DHT22;28110;47.080;9.476;2023-04-07T10:39:48;13.50;70.40
42479;DHT22;28110;47.080;9.476;2023-04-07T10:45:06;13.40;73.50
42479;DHT22;28110;47.080;9.476;2023-04-07T10:47:32;13.40;79.30
42479;DHT22;28110;47.080;9.476;2023-04-07T10:50:15;13.20;75.70
42479;DHT22;28110;47.080;9.476;2023-04-07T10:52:42;13.20;74.40
42479;DHT22;28110;47.080;9.476;2023-04-07T10:58:12;12.90;71.10
42479;DHT22;28110;47.080;9.476;2023-04-07T11:00:37;12.80;70.40
42479;DHT22;28110;47.080;9.476;2023-04-07T11:03:10;12.90;70.30
42479;DHT22;28110;47.080;9.476;2023-04-07T11:05:40;12.70;70.90
42479;DHT22;28110;47.080;9.476;2023-04-07T11:08:05;12.70;72.90
42479;DHT22;28110;47.080;9.476;2023-04-07T11:10:35;12.70;72.90
42479;DHT22;28110;47.080;9.476;2023-04-07T11:13:06;12.60;73.50
42479;DHT22;28110;47.080;9.476;2023-04-07T11:15:33;12.50;75.60
42479;DHT22;28110;47.080;9.476;2023-04-07T11:18:19;12.50;76.30
42479;DHT22;28110;47.080;9.476;2023-04-07T11:20:51;12.50;77.60
42479;DHT22;28110;47.080;9.476;2023-04-07T11:23:19;12.50;76.40
42479;DHT22;28110;47.080;9.476;2023-04-07T11:25:47;12.60;77.10
42479;DHT22;28110;47.080;9.476;2023-04-07T11:28:13;12.60;76.90
42479;DHT22;28110;47.080;9.476;2023-04-07T11:30:45;12.60;78.20
42479;DHT22;28110;47.080;9.476;2023-04-07T11:33:16;12.60;78.70
42479;DHT22;28110;47.080;9.476;2023-04-07T11:35:49;12.70;78.50
42479;DHT22;28110;47.080;9.476;2023-04-07T11:38:15;12.70;78.90
42479;DHT22;28110;47.080;9.476;2023-04-07T11:40:41;12.70;78.70
42479;DHT22;28110;47.080;9.476;2023-04-07T11:43:21;12.70;78.70
42479;DHT22;28110;47.080;9.476;2023-04-07T11:46:10;12.60;78.90
42479;DHT22;28110;47.080;9.476;2023-04-07T11:48:38;12.60;77.60
42479;DHT22;28110;47.080;9.476;2023-04-07T11:51:04;12.70;79.80
42479;DHT22;28110;47.080;9.476;2023-04-07T11:53:33;12.70;79.70
42479;DHT22;28110;47.080;9.476;2023-04-07T11:56:07;12.60;78.10
42479;DHT22;28110;47.080;9.476;2023-04-07T11:58:34;12.50;79.20
42479;DHT22;28110;47.080;9.476;2023-04-07T12:01:03;12.50;79.30
42479;DHT22;28110;47.080;9.476;2023-04-07T12:03:32;12.50;79.90
42479;DHT22;28110;47.080;9.476;2023-04-07T12:05:58;12.50;79.00
42479;DHT22;28110;47.080;9.476;2023-04-07T12:08:41;12.50;80.30
42479;DHT22;28110;47.080;9.476;2023-04-07T12:11:08;12.60;80.30
42479;DHT22;28110;47.080;9.476;2023-04-07T12:13:36;12.60;80.70
42479;DHT22;28110;47.080;9.476;2023-04-07T12:16:02;12.60;78.40
42479;DHT22;28110;47.080;9.476;2023-04-07T12:18:28;12.70;80.20
42479;DHT22;28110;47.080;9.476;2023-04-07T12:20:54;12.70;80.10
42479;DHT22;28110;47.080;9.476;2023-04-07T12:23:19;12.60;79.10
42479;DHT22;28110;47.080;9.476;2023-04-07T12:25:45;12.50;79.60
42479;DHT22;28110;47.080;9.476;2023-04-07T12:28:11;12.60;79.50
42479;DHT22;28110;47.080;9.476;2023-04-07T12:30:36;12.40;80.70
42479;DHT22;28110;47.080;9.476;2023-04-07T12:33:02;12.40;82.80
42479;DHT22;28110;47.080;9.476;2023-04-07T12:35:28;12.50;81.80
42479;DHT22;28110;47.080;9.476;2023-04-07T12:37:55;12.50;80.50
42479;DHT22;28110;47.080;9.476;2023-04-07T12:40:21;12.60;81.10
42479;DHT22;28110;47.080;9.476;2023-04-07T12:42:47;12.60;81.00
42479;DHT22;28110;47.080;9.476;2023-04-07T12:45:12;12.60;80.30
42479;DHT22;28110;47.080;9.476;2023-04-07T12:47:38;12.60;81.20
42479;DHT22;28110;47.080;9.476;2023-04-07T12:50:04;12.70;80.90
42479;DHT22;28110;47.080;9.476;2023-04-07T12:52:29;12.60;80.90
42479;DHT22;28110;47.080;9.476;2023-04-07T12:54:56;12.60;80.40
42479;DHT22;28110;47.080;9.476;2023-04-07T12:57:22;12.60;82.50
42479;DHT22;28110;47.080;9.476;2023-04-07T12:59:48;12.50;81.70
42479;DHT22;28110;47.080;9.476;2023-04-07T13:02:14;12.50;82.50
42479;DHT22;28110;47.080;9.476;2023-04-07T13:04:42;12.40;81.80
42479;DHT22;28110;47.080;9.476;2023-04-07T13:07:14;12.30;84.00
42479;DHT22;28110;47.080;9.476;2023-04-07T13:09:39;12.20;84.60
42479;DHT22;28110;47.080;9.476;2023-04-07T13:12:11;12.20;86.30
42479;DHT22;28110;47.080;9.476;2023-04-07T13:14:38;12.20;87.60
42479;DHT22;28110;47.080;9.476;2023-04-07T13:17:05;12.10;86.70
42479;DHT22;28110;47.080;9.476;2023-04-07T13:19:30;12.10;88.20
42479;DHT22;28110;47.080;9.476;2023-04-07T13:21:56;12.00;87.50
42479;DHT22;28110;47.080;9.476;2023-04-07T13:24:22;12.00;87.90
42479;DHT22;28110;47.080;9.476;2023-04-07T13:26:47;12.00;87.80
42479;DHT22;28110;47.080;9.476;2023-04-07T13:29:13;12.00;86.40
42479;DHT22;28110;47.080;9.476;2023-04-07T13:31:39;12.10;87.70
42479;DHT22;28110;47.080;9.476;2023-04-07T13:34:04;12.00;86.60
42479;DHT22;28110;47.080;9.476;2023-04-07T13:36:30;12.00;86.90
42479;DHT22;28110;47.080;9.476;2023-04-07T13:38:56;12.00;87.60
42479;DHT22;28110;47.080;9.476;2023-04-07T13:41:22;12.00;88.00
42479;DHT22;28110;47.080;9.476;2023-04-07T13:43:47;12.00;86.20
42479;DHT22;28110;47.080;9.476;2023-04-07T13:46:13;12.00;86.50
42479;DHT22;28110;47.080;9.476;2023-04-07T13:48:46;12.00;87.60
42479;DHT22;28110;47.080;9.476;2023-04-07T13:51:12;12.00;86.90
42479;DHT22;28110;47.080;9.476;2023-04-07T13:53:37;12.00;85.10
42479;DHT22;28110;47.080;9.476;2023-04-07T13:56:03;11.90;87.00
42479;DHT22;28110;47.080;9.476;2023-04-07T13:58:30;11.80;85.60
42479;DHT22;28110;47.080;9.476;2023-04-07T14:00:56;11.80;86.10
42479;DHT22;28110;47.080;9.476;2023-04-07T14:03:21;11.70;87.10
42479;DHT22;28110;47.080;9.476;2023-04-07T14:05:47;11.70;89.20
42479;DHT22;28110;47.080;9.476;2023-04-07T14:08:12;11.60;91.60
42479;DHT22;28110;47.080;9.476;2023-04-07T14:10:39;11.60;92.30
42479;DHT22;28110;47.080;9.476;2023-04-07T14:13:05;11.60;93.80
42479;DHT22;28110;47.080;9.476;2023-04-07T14:15:31;11.60;94.00
42479;DHT22;28110;47.080;9.476;2023-04-07T14:17:56;11.50;94.70
42479;DHT22;28110;47.080;9.476;2023-04-07T14:20:22;11.40;95.50
42479;DHT22;28110;47.080;9.476;2023-04-07T14:22:48;11.40;95.20
42479;DHT22;28110;47.080;9.476;2023-04-07T14:25:13;11.40;94.50
42479;DHT22;28110;47.080;9.476;2023-04-07T14:27:39;11.20;95.20
42479;DHT22;28110;47.080;9.476;2023-04-07T14:30:05;11.10;96.00
42479;DHT22;28110;47.080;9.476;2023-04-07T14:32:32;10.90;95.70
42479;DHT22;28110;47.080;9.476;2023-04-07T14:34:58;10.80;97.20
42479;DHT22;28110;47.080;9.476;2023-04-07T14:37:24;10.80;97.40
42479;DHT22;28110;47.080;9.476;2023-04-07T14:39:51;10.70;98.60
42479;DHT22;28110;47.080;9.476;2023-04-07T14:42:18;10.60;99.20
42479;DHT22;28110;47.080;9.476;2023-04-07T14:44:43;10.50;99.90
42479;DHT22;28110;47.080;9.476;2023-04-07T14:47:09;10.40;99.90
42479;DHT22;28110;47.080;9.476;2023-04-07T14:49:34;10.40;99.90
42479;DHT22;28110;47.080;9.476;2023-04-07T14:52:00;10.30;99.90
42479;DHT22;28110;47.080;9.476;2023-04-07T14:54:25;10.30;99.90
42479;DHT22;28110;47.080;9.476;2023-04-07T14:56:51;10.30;99.90
42479;DHT22;28110;47.080;9.476;2023-04-07T14:59:16;10.20;99.90
42479;DHT22;28110;47.080;9.476;2023-04-07T15:01:42;10.20;99.90
42479;DHT22;28110;47.080;9.476;2023-04-07T15:04:07;10.10;99.90
42479;DHT22;28110;47.080;9.476;2023-04-07T15:06:33;10.00;99.90
42479;DHT22;28110;47.080;9.476;2023-04-07T15:08:58;10.00;99.90
42479;DHT22;28110;47.080;9.476;2023-04-07T15:11:24;9.90;99.90
42479;DHT22;28110;47.080;9.476;2023-04-07T15:13:50;9.90;99.90
42479;DHT22;28110;47.080;9.476;2023-04-07T15:16:16;9.80;99.90
42479;DHT22;28110;47.080;9.476;2023-04-07T15:18:43;9.80;99.90
42479;DHT22;28110;47.080;9.476;2023-04-07T15:21:10;9.70;99.90
42479;DHT22;28110;47.080;9.476;2023-04-07T15:23:37;9.70;99.90
42479;DHT22;28110;47.080;9.476;2023-04-07T15:26:03;9.60;99.90
42479;DHT22;28110;47.080;9.476;2023-04-07T15:28:29;9.60;99.90
42479;DHT22;28110;47.080;9.476;2023-04-07T15:30:55;9.60;99.90
42479;DHT22;28110;47.080;9.476;2023-04-07T15:33:21;9.50;99.90
42479;DHT22;28110;47.080;9.476;2023-04-07T15:35:46;9.50;99.90
42479;DHT22;28110;47.080;9.476;2023-04-07T15:38:12;9.60;99.90
42479;DHT22;28110;47.080;9.476;2023-04-07T15:40:40;9.50;99.90
42479;DHT22;28110;47.080;9.476;2023-04-07T15:43:06;9.40;99.90
42479;DHT22;28110;47.080;9.476;2023-04-07T15:45:38;9.30;99.90
42479;DHT22;28110;47.080;9.476;2023-04-07T15:48:04;9.30;99.90
42479;DHT22;28110;47.080;9.476;2023-04-07T15:50:30;9.30;99.90
42479;DHT22;28110;47.080;9.476;2023-04-07T15:52:56;9.30;99.90
42479;DHT22;28110;47.080;9.476;2023-04-07T15:55:21;9.30;99.90
42479;DHT22;28110;47.080;9.476;2023-04-07T15:57:47;9.30;99.90